createdAt,value
2019-03-31T00:01:56.816Z,101796.02
2019-03-31T00:04:27.670Z,101789.07
2019-03-31T00:07:00.142Z,101785.20
2019-03-31T00:09:30.963Z,101785.69
2019-03-31T00:12:03.071Z,101781.25
2019-03-31T00:14:34.239Z,101783.63
2019-03-31T00:17:05.261Z,101779.91
2019-03-31T00:19:36.383Z,101784.20
2019-03-31T00:22:07.239Z,101780.89
2019-03-31T00:24:38.089Z,101787.02
2019-03-31T00:27:09.238Z,101791.14
2019-03-31T00:29:40.255Z,101789.73
2019-03-31T00:32:11.068Z,101798.70
2019-03-31T00:34:42.159Z,101796.21
2019-03-31T00:37:12.971Z,101797.59
2019-03-31T00:39:45.021Z,101796.56
2019-03-31T00:42:16.250Z,101795.44
2019-03-31T00:44:48.432Z,101797.09
2019-03-31T00:47:19.601Z,101802.22
2019-03-31T00:49:51.202Z,101806.31
2019-03-31T00:52:22.052Z,101798.77
2019-03-31T00:54:53.008Z,101807.78
2019-03-31T00:57:24.121Z,101799.41
2019-03-31T00:59:55.101Z,101799.41
2019-03-31T01:02:29.343Z,101800.78
2019-03-31T01:05:00.657Z,101805.09
2019-03-31T01:07:33.027Z,101798.95
2019-03-31T01:10:05.134Z,101800.44
2019-03-31T01:12:37.018Z,101803.08
2019-03-31T01:15:13.807Z,101801.00
2019-03-31T01:17:45.088Z,101804.91
2019-03-31T01:20:16.537Z,101803.22
2019-03-31T01:22:50.140Z,101806.37
2019-03-31T01:25:21.020Z,101803.81
2019-03-31T01:27:53.291Z,101811.05
2019-03-31T01:30:25.038Z,101801.41
2019-03-31T01:32:57.425Z,101803.48
2019-03-31T01:35:28.862Z,101802.55
2019-03-31T01:38:02.342Z,101802.32
2019-03-31T01:40:33.256Z,101807.20
2019-03-31T01:43:06.383Z,101814.62
2019-03-31T01:45:37.570Z,101811.77
2019-03-31T01:48:08.697Z,101811.77
2019-03-31T01:50:39.615Z,101817.05
2019-03-31T01:53:10.419Z,101815.63
2019-03-31T01:55:41.363Z,101816.48
2019-03-31T01:58:12.276Z,101827.63
2019-03-31T02:00:46.678Z,101828.28
2019-03-31T02:03:17.687Z,101834.67
2019-03-31T02:05:48.580Z,101832.12
2019-03-31T02:08:19.450Z,101827.63
2019-03-31T02:10:50.595Z,101828.58
2019-03-31T02:13:21.544Z,101831.64
2019-03-31T02:15:52.858Z,101826.72
2019-03-31T02:18:23.786Z,101823.52
2019-03-31T02:20:58.361Z,101819.74
2019-03-31T02:23:29.296Z,101827.83
2019-03-31T02:26:00.420Z,101826.05
2019-03-31T02:28:31.237Z,101820.37
2019-03-31T02:31:03.085Z,101812.63
2019-03-31T02:33:34.074Z,101815.59
2019-03-31T02:36:05.831Z,101803.61
2019-03-31T02:38:36.670Z,101803.61
2019-03-31T02:41:07.524Z,101820.89
2019-03-31T02:43:38.661Z,101823.49
2019-03-31T02:46:09.482Z,101823.07
2019-03-31T02:48:40.492Z,101820.20
2019-03-31T02:51:11.379Z,101823.98
2019-03-31T02:53:43.516Z,101828.20
2019-03-31T02:56:17.114Z,101828.20
2019-03-31T02:58:48.777Z,101830.66
2019-03-31T03:01:20.593Z,101834.17
2019-03-31T03:03:53.371Z,101836.59
2019-03-31T03:06:28.368Z,101823.59
2019-03-31T03:09:02.232Z,101826.97
2019-03-31T03:11:35.002Z,101826.39
2019-03-31T03:14:07.048Z,101824.77
2019-03-31T03:16:38.142Z,101831.06
2019-03-31T03:19:08.974Z,101825.33
2019-03-31T03:21:39.822Z,101830.77
2019-03-31T03:24:10.695Z,101831.13
2019-03-31T03:26:41.551Z,101835.88
2019-03-31T03:29:12.420Z,101830.20
2019-03-31T03:31:43.701Z,101830.77
2019-03-31T03:34:14.606Z,101831.64
2019-03-31T03:36:45.423Z,101837.08
2019-03-31T03:39:16.605Z,101831.00
2019-03-31T03:41:47.443Z,101839.63
2019-03-31T03:44:19.975Z,101839.23
2019-03-31T03:46:50.831Z,101842.44
2019-03-31T03:49:21.674Z,101849.05
2019-03-31T03:51:52.526Z,101848.38
2019-03-31T03:54:23.664Z,101854.33
2019-03-31T03:56:55.101Z,101853.11
2019-03-31T03:59:27.309Z,101856.70
2019-03-31T04:01:59.320Z,101861.45
2019-03-31T04:04:30.171Z,101859.70
2019-03-31T04:07:01.442Z,101862.50
2019-03-31T04:09:32.380Z,101871.31
2019-03-31T04:12:03.767Z,101874.72
2019-03-31T04:14:34.631Z,101874.72
2019-03-31T04:17:05.768Z,101870.66
2019-03-31T04:19:36.683Z,101876.27
2019-03-31T04:22:07.524Z,101874.52
2019-03-31T04:24:38.639Z,101877.37
2019-03-31T04:27:09.888Z,101874.66
2019-03-31T04:29:40.719Z,101879.15
2019-03-31T04:32:11.541Z,101873.61
2019-03-31T04:34:42.664Z,101875.94
2019-03-31T04:37:13.527Z,101880.66
2019-03-31T04:39:44.434Z,101882.27
2019-03-31T04:42:15.274Z,101885.67
2019-03-31T04:44:46.543Z,101887.73
2019-03-31T04:47:17.386Z,101891.89
2019-03-31T04:49:48.776Z,101887.73
2019-03-31T04:52:19.912Z,101891.28
2019-03-31T04:54:51.933Z,101891.28
2019-03-31T04:57:22.805Z,101886.72
2019-03-31T04:59:54.637Z,101891.28
2019-03-31T05:02:27.352Z,101890.66
2019-03-31T05:04:59.490Z,101893.22
2019-03-31T05:07:30.507Z,101897.05
2019-03-31T05:10:01.367Z,101898.06
2019-03-31T05:12:32.483Z,101901.28
2019-03-31T05:15:03.331Z,101908.16
2019-03-31T05:17:35.979Z,101909.37
2019-03-31T05:20:07.456Z,101914.15
2019-03-31T05:22:38.320Z,101913.19
2019-03-31T05:25:09.164Z,101910.63
2019-03-31T05:27:40.009Z,101912.30
2019-03-31T05:30:11.061Z,101912.80
2019-03-31T05:32:42.199Z,101921.09
2019-03-31T05:35:13.291Z,101922.30
2019-03-31T05:37:51.130Z,101925.64
2019-03-31T05:40:17.432Z,101921.50
2019-03-31T05:42:48.596Z,101915.95
2019-03-31T05:45:19.475Z,101915.66
2019-03-31T05:47:51.632Z,101916.66
2019-03-31T05:50:22.727Z,101916.52
2019-03-31T05:52:54.383Z,101925.92
2019-03-31T05:55:25.261Z,101925.92
2019-03-31T05:57:56.143Z,101932.63
2019-03-31T06:00:53.896Z,101942.24
2019-03-31T06:03:25.037Z,101943.28
2019-03-31T06:05:56.104Z,101944.78
2019-03-31T06:08:27.268Z,101947.01
2019-03-31T06:10:58.612Z,101954.78
2019-03-31T06:13:31.139Z,101962.87
2019-03-31T06:16:01.959Z,101973.50
2019-03-31T06:18:33.576Z,101981.12
2019-03-31T06:21:05.602Z,101985.77
2019-03-31T06:23:36.441Z,101985.12
2019-03-31T06:26:07.423Z,101988.36
2019-03-31T06:28:39.461Z,101992.84
2019-03-31T06:31:10.634Z,101993.64
2019-03-31T06:33:41.478Z,102001.61
2019-03-31T06:36:12.623Z,102007.21
2019-03-31T06:38:43.440Z,102011.83
2019-03-31T06:41:14.367Z,102020.27
2019-03-31T06:43:45.273Z,102017.80
2019-03-31T06:46:16.474Z,102022.63
2019-03-31T06:48:47.333Z,102033.16
2019-03-31T06:51:20.720Z,102031.19
2019-03-31T06:53:51.695Z,102037.51
2019-03-31T06:56:22.579Z,102037.19
2019-03-31T06:58:53.728Z,102038.60
2019-03-31T07:01:24.882Z,102042.20
2019-03-31T07:03:55.728Z,102044.03
2019-03-31T07:06:27.381Z,102043.90
2019-03-31T07:08:58.511Z,102048.84
2019-03-31T07:11:29.797Z,102051.83
2019-03-31T07:14:00.715Z,102055.23
2019-03-31T07:16:31.593Z,102058.30
2019-03-31T07:19:02.739Z,102063.41
2019-03-31T07:21:33.791Z,102058.30
2019-03-31T07:24:04.626Z,102077.43
2019-03-31T07:26:35.971Z,102070.35
2019-03-31T07:29:06.835Z,102084.39
2019-03-31T07:31:37.927Z,102069.07
2019-03-31T07:34:08.806Z,102071.63
2019-03-31T07:36:39.860Z,102070.72
2019-03-31T07:39:10.939Z,102077.60
2019-03-31T07:41:42.276Z,102083.67
2019-03-31T07:44:15.311Z,102084.36
2019-03-31T07:46:46.187Z,102076.59
2019-03-31T07:49:17.046Z,102076.59
2019-03-31T07:51:49.887Z,102085.02
2019-03-31T07:54:21.081Z,102091.58
2019-03-31T07:56:53.162Z,102094.81
2019-03-31T07:59:24.371Z,102094.81
2019-03-31T08:01:55.164Z,102101.80
2019-03-31T08:04:26.538Z,102112.59
2019-03-31T08:06:57.733Z,102110.36
2019-03-31T08:09:28.583Z,102109.27
2019-03-31T08:11:59.630Z,102110.23
2019-03-31T08:14:30.790Z,102107.79
2019-03-31T08:17:01.994Z,102109.83
2019-03-31T08:19:33.545Z,102112.64
2019-03-31T08:22:04.695Z,102119.21
2019-03-31T08:24:44.573Z,102124.05
2019-03-31T08:27:16.536Z,102126.48
2019-03-31T08:29:59.599Z,102124.52
2019-03-31T08:32:20.902Z,102122.97
2019-03-31T08:34:52.121Z,102129.43
2019-03-31T08:37:22.977Z,102134.53
2019-03-31T08:39:55.793Z,102126.22
2019-03-31T08:42:26.680Z,102140.84
2019-03-31T08:44:59.061Z,102139.37
2019-03-31T08:47:30.319Z,102142.69
2019-03-31T08:50:02.656Z,102142.05
2019-03-31T08:52:33.931Z,102145.30
2019-03-31T08:55:05.039Z,102143.81
2019-03-31T08:57:36.025Z,102140.45
2019-03-31T09:00:09.906Z,102145.44
2019-03-31T09:02:40.876Z,102140.69
2019-03-31T09:05:12.395Z,102141.83
2019-03-31T09:07:44.690Z,102153.20
2019-03-31T09:10:18.390Z,102151.19
2019-03-31T09:12:49.516Z,102159.14
2019-03-31T09:15:20.563Z,102154.86
2019-03-31T09:17:54.195Z,102159.94
2019-03-31T09:20:25.244Z,102158.94
2019-03-31T09:22:56.424Z,102158.55
2019-03-31T09:25:28.633Z,102164.28
2019-03-31T09:28:01.096Z,102166.25
2019-03-31T09:30:31.992Z,102158.43
2019-03-31T09:33:04.466Z,102158.43
2019-03-31T09:35:35.389Z,102164.12
2019-03-31T09:38:06.579Z,102159.58
2019-03-31T09:40:37.424Z,102164.98
2019-03-31T09:43:08.432Z,102162.57
2019-03-31T09:45:39.580Z,102164.41
2019-03-31T09:48:12.632Z,102164.78
2019-03-31T09:50:43.459Z,102170.74
2019-03-31T09:53:14.593Z,102170.16
2019-03-31T09:55:45.800Z,102154.22
2019-03-31T09:58:16.689Z,102165.51
2019-03-31T10:00:50.881Z,102166.55
2019-03-31T10:03:23.036Z,102170.09
2019-03-31T10:05:54.195Z,102158.58
2019-03-31T10:08:25.439Z,102161.78
2019-03-31T10:10:56.535Z,102157.33
2019-03-31T10:13:27.416Z,102166.41
2019-03-31T10:15:58.671Z,102163.20
2019-03-31T10:18:29.681Z,102168.09
2019-03-31T10:21:01.015Z,102166.61
2019-03-31T10:23:32.181Z,102172.87
2019-03-31T10:26:03.314Z,102175.39
2019-03-31T10:28:34.286Z,102185.97
2019-03-31T10:31:07.124Z,102175.23
2019-03-31T10:33:38.001Z,102167.84
2019-03-31T10:36:08.935Z,102167.95
2019-03-31T10:38:42.361Z,102165.00
2019-03-31T10:41:13.583Z,102161.77
2019-03-31T10:43:44.725Z,102168.28
2019-03-31T10:46:15.872Z,102163.66
2019-03-31T10:48:48.328Z,102169.05
2019-03-31T10:51:20.784Z,102160.58
2019-03-31T10:53:53.380Z,102155.63
2019-03-31T10:56:24.417Z,102155.65
2019-03-31T10:58:55.581Z,102147.70
2019-03-31T11:01:26.797Z,102157.10
2019-03-31T11:03:57.993Z,102165.31
2019-03-31T11:06:29.160Z,102160.91
2019-03-31T11:09:00.403Z,102160.91
2019-03-31T11:11:31.772Z,102170.24
2019-03-31T11:14:04.417Z,102156.48
2019-03-31T11:16:35.567Z,102154.05
2019-03-31T11:19:06.633Z,102156.98
2019-03-31T11:21:43.037Z,102157.69
2019-03-31T11:24:15.856Z,102156.91
2019-03-31T11:26:47.027Z,102161.87
2019-03-31T11:29:18.161Z,102160.23
2019-03-31T11:31:49.151Z,102168.27
2019-03-31T11:34:20.353Z,102157.52
2019-03-31T11:36:51.517Z,102165.64
2019-03-31T11:39:22.436Z,102165.64
2019-03-31T11:41:53.736Z,102173.72
2019-03-31T11:44:27.552Z,102167.98
2019-03-31T11:46:57.426Z,102166.59
2019-03-31T11:49:29.430Z,102167.20
2019-03-31T11:52:00.937Z,102141.87
2019-03-31T11:54:32.140Z,102166.00
2019-03-31T11:57:03.541Z,102156.27
2019-03-31T11:59:34.548Z,102168.05
2019-03-31T12:02:06.755Z,102167.03
2019-03-31T12:04:37.673Z,102165.28
2019-03-31T12:07:09.606Z,102167.67
2019-03-31T12:09:40.797Z,102167.67
2019-03-31T12:12:11.828Z,102157.60
2019-03-31T12:14:42.733Z,102162.25
2019-03-31T12:17:15.733Z,102161.80
2019-03-31T12:19:48.804Z,102157.67
2019-03-31T12:22:19.652Z,102158.70
2019-03-31T12:24:50.511Z,102153.39
2019-03-31T12:27:21.393Z,102152.28
2019-03-31T12:29:53.869Z,102155.90
2019-03-31T12:32:24.924Z,102159.47
2019-03-31T12:34:55.880Z,102157.18
2019-03-31T12:37:41.283Z,102152.48
2019-03-31T12:39:59.788Z,102158.98
2019-03-31T12:42:30.647Z,102140.94
2019-03-31T12:45:01.859Z,102142.80
2019-03-31T12:47:33.238Z,102135.98
2019-03-31T12:50:04.651Z,102141.58
2019-03-31T12:52:46.186Z,102134.98
2019-03-31T12:55:08.525Z,102145.78
2019-03-31T12:57:39.480Z,102135.23
2019-03-31T13:00:10.528Z,102128.72
2019-03-31T13:02:41.644Z,102150.10
2019-03-31T13:05:13.729Z,102139.27
2019-03-31T13:07:55.693Z,102133.54
2019-03-31T13:10:17.786Z,102144.63
2019-03-31T13:12:48.666Z,102132.70
2019-03-31T13:15:19.911Z,102115.04
2019-03-31T13:17:50.751Z,102123.53
2019-03-31T13:20:22.019Z,102111.14
2019-03-31T13:22:53.148Z,102117.75
2019-03-31T13:25:24.334Z,102123.61
2019-03-31T13:27:55.543Z,102111.84
2019-03-31T13:30:26.734Z,102113.61
2019-03-31T13:32:57.694Z,102111.00
2019-03-31T13:35:28.846Z,102112.98
2019-03-31T13:38:10.484Z,102122.52
2019-03-31T13:40:33.436Z,102126.17
2019-03-31T13:43:04.785Z,102124.42
2019-03-31T13:45:35.714Z,102130.64
2019-03-31T13:48:06.876Z,102125.52
2019-03-31T13:50:37.913Z,102119.16
2019-03-31T13:53:08.741Z,102122.03
2019-03-31T13:55:39.853Z,102111.98
2019-03-31T13:58:13.222Z,102106.91
2019-03-31T14:00:43.732Z,102112.52
2019-03-31T14:03:14.885Z,102118.67
2019-03-31T14:05:46.698Z,102110.30
2019-03-31T14:08:25.518Z,102113.20
2019-03-31T14:10:50.882Z,102127.38
2019-03-31T14:13:21.918Z,102111.15
2019-03-31T14:15:53.080Z,102098.78
2019-03-31T14:18:23.947Z,102100.94
2019-03-31T14:20:54.888Z,102106.83
2019-03-31T14:23:26.075Z,102109.80
2019-03-31T14:25:57.003Z,102105.02
2019-03-31T14:28:27.997Z,102097.73
2019-03-31T14:30:58.847Z,102090.14
2019-03-31T14:33:30.062Z,102087.92
2019-03-31T14:36:00.976Z,102091.02
2019-03-31T14:38:40.048Z,102080.50
2019-03-31T14:41:04.504Z,102082.31
2019-03-31T14:43:35.636Z,102087.03
2019-03-31T14:46:07.182Z,102084.47
2019-03-31T14:48:39.101Z,102100.14
2019-03-31T14:51:09.975Z,102098.58
2019-03-31T14:53:40.854Z,102105.00
2019-03-31T14:56:11.727Z,102103.10
2019-03-31T14:58:42.720Z,102111.22
2019-03-31T15:01:13.552Z,102099.73
2019-03-31T15:03:44.446Z,102096.02
2019-03-31T15:06:15.837Z,102102.21
2019-03-31T15:08:54.172Z,102105.19
2019-03-31T15:11:21.951Z,102100.87
2019-03-31T15:13:53.853Z,102099.13
2019-03-31T15:16:26.856Z,102097.91
2019-03-31T15:18:57.994Z,102103.71
2019-03-31T15:21:28.839Z,102096.50
2019-03-31T15:23:59.947Z,102089.16
2019-03-31T15:26:30.842Z,102091.63
2019-03-31T15:29:01.671Z,102093.38
2019-03-31T15:31:32.805Z,102095.33
2019-03-31T15:34:03.900Z,102090.13
2019-03-31T15:36:34.852Z,102087.20
2019-03-31T15:39:09.304Z,102100.33
2019-03-31T15:41:40.943Z,102090.06
2019-03-31T15:44:11.841Z,102091.14
2019-03-31T15:46:42.765Z,102093.36
2019-03-31T15:49:13.882Z,102093.10
2019-03-31T15:51:44.742Z,102102.14
2019-03-31T15:54:15.888Z,102094.13
2019-03-31T15:56:46.926Z,102090.52
2019-03-31T15:59:18.134Z,102099.31
2019-03-31T16:01:49.301Z,102090.66
2019-03-31T16:04:21.465Z,102101.70
2019-03-31T16:06:52.531Z,102098.93
2019-03-31T16:09:24.215Z,102096.96
2019-03-31T16:11:54.890Z,102094.00
2019-03-31T16:14:25.598Z,102094.67
2019-03-31T16:16:55.970Z,102101.75
2019-03-31T16:19:29.221Z,102091.69
2019-03-31T16:21:59.566Z,102099.25
2019-03-31T16:24:39.934Z,102093.56
2019-03-31T16:27:10.324Z,102098.80
2019-03-31T16:29:40.801Z,102095.53
2019-03-31T16:32:11.127Z,102083.84
2019-03-31T16:34:41.540Z,102099.98
2019-03-31T16:37:12.210Z,102101.88
2019-03-31T16:39:42.870Z,102093.28
2019-03-31T16:42:13.230Z,102095.76
2019-03-31T16:44:57.118Z,102090.64
2019-03-31T16:47:16.884Z,102085.45
2019-03-31T16:49:47.211Z,102088.90
2019-03-31T16:52:18.299Z,102084.71
2019-03-31T16:54:48.720Z,102098.48
2019-03-31T16:57:20.241Z,102087.77
2019-03-31T16:59:53.192Z,102090.78
2019-03-31T17:02:23.543Z,102095.52
2019-03-31T17:04:55.317Z,102092.95
2019-03-31T17:07:25.769Z,102095.67
2019-03-31T17:09:56.474Z,102088.85
2019-03-31T17:12:27.149Z,102094.72
2019-03-31T17:14:58.598Z,102092.90
2019-03-31T17:17:29.255Z,102090.98
2019-03-31T17:20:00.979Z,102093.73
2019-03-31T17:22:31.664Z,102090.63
2019-03-31T17:25:02.029Z,102091.22
2019-03-31T17:27:32.646Z,102088.02
2019-03-31T17:30:03.191Z,102087.11
2019-03-31T17:32:34.030Z,102093.12
2019-03-31T17:35:04.615Z,102088.13
2019-03-31T17:37:35.012Z,102099.03
2019-03-31T17:40:07.312Z,102103.84
2019-03-31T17:42:39.293Z,102096.00
2019-03-31T17:45:10.812Z,102099.54
2019-03-31T17:47:41.182Z,102101.23
2019-03-31T17:50:11.846Z,102113.19
2019-03-31T17:52:42.170Z,102110.02
2019-03-31T17:55:12.831Z,102108.20
2019-03-31T17:57:43.238Z,102115.20
2019-03-31T18:00:14.666Z,102123.62
2019-03-31T18:02:45.106Z,102115.28
2019-03-31T18:05:15.730Z,102123.30
2019-03-31T18:07:46.555Z,102122.70
2019-03-31T18:10:21.148Z,102126.25
2019-03-31T18:12:51.827Z,102128.54
2019-03-31T18:15:22.154Z,102132.05
2019-03-31T18:17:54.696Z,102129.02
2019-03-31T18:20:25.015Z,102134.16
2019-03-31T18:22:56.494Z,102133.66
2019-03-31T18:25:27.094Z,102136.77
2019-03-31T18:27:57.855Z,102145.22
2019-03-31T18:30:28.522Z,102147.84
2019-03-31T18:32:58.901Z,102153.05
2019-03-31T18:35:30.764Z,102152.81
2019-03-31T18:38:01.262Z,102149.91
2019-03-31T18:40:35.191Z,102153.88
2019-03-31T18:43:04.704Z,102154.31
2019-03-31T18:45:38.136Z,102157.07
2019-03-31T18:48:08.611Z,102161.42
2019-03-31T18:50:40.191Z,102162.73
2019-03-31T18:53:12.479Z,102162.73
2019-03-31T18:56:07.372Z,102165.48
2019-03-31T18:59:02.055Z,102172.80
2019-03-31T19:02:03.928Z,102170.38
2019-03-31T19:04:56.405Z,102178.30
2019-03-31T19:08:02.581Z,102177.02
2019-03-31T19:11:08.775Z,102179.89
2019-03-31T19:14:15.197Z,102177.37
2019-03-31T19:16:56.167Z,102185.28
2019-03-31T19:20:05.640Z,102187.36
2019-03-31T19:22:50.949Z,102179.53
2019-03-31T19:25:47.033Z,102177.89
2019-03-31T19:28:53.067Z,102181.52
2019-03-31T19:31:49.057Z,102184.16
2019-03-31T19:34:41.234Z,102186.61
2019-03-31T19:37:29.447Z,102181.69
2019-03-31T19:40:17.972Z,102187.31
2019-03-31T19:43:25.759Z,102186.01
2019-03-31T19:46:18.061Z,102195.45
2019-03-31T19:49:23.188Z,102190.75
2019-03-31T19:52:12.218Z,102194.05
2019-03-31T19:55:04.553Z,102195.52
2019-03-31T19:57:52.463Z,102196.60
2019-03-31T20:00:41.712Z,102196.91
2019-03-31T20:03:30.000Z,102199.92
2019-03-31T20:06:18.198Z,102202.70
2019-03-31T20:08:57.372Z,102203.16
2019-03-31T20:12:03.759Z,102208.48
2019-03-31T20:14:54.247Z,102206.09
2019-03-31T20:17:31.037Z,102215.84
2019-03-31T20:20:19.358Z,102210.96
2019-03-31T20:23:07.859Z,102207.00
2019-03-31T20:25:51.347Z,102211.55
2019-03-31T20:28:40.586Z,102208.22
2019-03-31T20:31:18.614Z,102213.33
2019-03-31T20:34:20.438Z,102214.98
2019-03-31T20:37:12.550Z,102218.62
2019-03-31T20:40:02.105Z,102215.88
2019-03-31T20:42:40.697Z,102215.44
2019-03-31T20:45:12.699Z,102217.53
2019-03-31T20:47:43.023Z,102221.05
2019-03-31T20:50:15.420Z,102221.77
2019-03-31T20:52:45.794Z,102224.59
2019-03-31T20:55:17.032Z,102222.84
2019-03-31T20:57:47.726Z,102227.63
2019-03-31T21:00:18.262Z,102228.15
2019-03-31T21:02:48.746Z,102233.73
2019-03-31T21:05:19.093Z,102232.45
2019-03-31T21:07:51.563Z,102225.59
2019-03-31T21:10:21.989Z,102231.28
2019-03-31T21:12:52.403Z,102243.73
2019-03-31T21:15:23.055Z,102238.34
2019-03-31T21:17:53.381Z,102239.13
2019-03-31T21:20:23.709Z,102241.97
2019-03-31T21:22:54.439Z,102241.85
2019-03-31T21:25:24.756Z,102248.58
2019-03-31T21:27:55.149Z,102244.65
2019-03-31T21:30:31.822Z,102250.78
2019-03-31T21:33:03.754Z,102250.48
2019-03-31T21:35:34.157Z,102255.09
2019-03-31T21:38:11.437Z,102259.74
2019-03-31T21:40:42.804Z,102259.63
2019-03-31T21:43:15.904Z,102262.91
2019-03-31T21:45:47.440Z,102263.33
2019-03-31T21:48:22.510Z,102276.20
2019-03-31T21:50:54.408Z,102267.06
2019-03-31T21:53:25.088Z,102267.41
2019-03-31T21:55:55.503Z,102270.21
2019-03-31T21:58:26.149Z,102269.98
2019-03-31T22:01:01.115Z,102268.16
2019-03-31T22:03:31.745Z,102269.17
2019-03-31T22:06:02.259Z,102269.17
2019-03-31T22:08:32.906Z,102272.28
2019-03-31T22:11:03.611Z,102263.80
2019-03-31T22:13:33.977Z,102271.99
2019-03-31T22:16:04.504Z,102279.72
2019-03-31T22:18:34.986Z,102273.97
2019-03-31T22:21:05.596Z,102271.34
2019-03-31T22:23:36.086Z,102275.33
2019-03-31T22:26:06.491Z,102273.33
2019-03-31T22:28:36.916Z,102278.78
2019-03-31T22:31:07.909Z,102267.78
2019-03-31T22:33:38.569Z,102273.09
2019-03-31T22:36:25.029Z,102279.51
2019-03-31T22:38:55.631Z,102287.59
2019-03-31T22:41:26.196Z,102278.94
2019-03-31T22:43:56.603Z,102281.65
2019-03-31T22:46:27.240Z,102273.60
2019-03-31T22:48:58.122Z,102273.70
2019-03-31T22:51:28.812Z,102275.03
2019-03-31T22:54:02.024Z,102273.16
2019-03-31T22:56:32.306Z,102270.26
2019-03-31T22:59:02.771Z,102276.73
2019-03-31T23:01:33.122Z,102273.45
2019-03-31T23:04:03.529Z,102269.02
2019-03-31T23:06:34.006Z,102267.52
2019-03-31T23:09:05.933Z,102270.27
2019-03-31T23:11:36.259Z,102271.50
2019-03-31T23:14:06.590Z,102272.20
2019-03-31T23:16:37.118Z,102266.25
2019-03-31T23:19:09.075Z,102266.25
2019-03-31T23:21:39.317Z,102267.90
2019-03-31T23:24:09.714Z,102266.21
2019-03-31T23:26:40.029Z,102265.17
2019-03-31T23:29:10.369Z,102260.00
2019-03-31T23:31:40.863Z,102251.63
2019-03-31T23:34:12.163Z,102262.69
2019-03-31T23:36:42.471Z,102256.02
2019-03-31T23:39:13.094Z,102259.72
2019-03-31T23:41:43.381Z,102261.65
2019-03-31T23:44:14.542Z,102250.45
2019-03-31T23:46:45.167Z,102255.58
2019-03-31T23:49:16.777Z,102252.20
2019-03-31T23:51:47.150Z,102251.86
2019-03-31T23:54:17.709Z,102250.87
2019-03-31T23:56:48.055Z,102244.29
2019-03-31T23:59:19.945Z,102242.17
